sensor_id;sensor_type;location;lat;lon;timestamp;pressure;altitude;pressure_sealevel;temperature;humidity
55263;BME280;41125;48.752;9.168;2023-05-18T00:00:03;97492.56;;;6.04;82.85
55263;BME280;41125;48.752;9.168;2023-05-18T00:00:36;97500.37;;;6.05;83.01
55263;BME280;41125;48.752;9.168;2023-05-18T00:01:07;97495.00;;;6.05;83.03
55263;BME280;41125;48.752;9.168;2023-05-18T00:01:40;97496.62;;;6.07;83.00
55263;BME280;41125;48.752;9.168;2023-05-18T00:02:12;97493.69;;;6.08;83.15
55263;BME280;41125;48.752;9.168;2023-05-18T00:02:46;97496.13;;;6.10;83.40
55263;BME280;41125;48.752;9.168;2023-05-18T00:03:21;97492.38;;;6.11;84.10
55263;BME280;41125;48.752;9.168;2023-05-18T00:03:52;97492.94;;;6.13;82.95
55263;BME280;41125;48.752;9.168;2023-05-18T00:04:26;97491.06;;;6.13;83.40
55263;BME280;41125;48.752;9.168;2023-05-18T00:04:58;97497.84;;;6.16;83.62
55263;BME280;41125;48.752;9.168;2023-05-18T00:05:32;97490.56;;;6.16;83.33
55263;BME280;41125;48.752;9.168;2023-05-18T00:06:05;97488.69;;;6.17;83.83
55263;BME280;41125;48.752;9.168;2023-05-18T00:06:37;97489.25;;;6.19;83.72
55263;BME280;41125;48.752;9.168;2023-05-18T00:07:08;97489.00;;;6.20;83.24
55263;BME280;41125;48.752;9.168;2023-05-18T00:07:40;97493.34;;;6.21;83.74
55263;BME280;41125;48.752;9.168;2023-05-18T00:08:11;97485.50;;;6.20;84.08
55263;BME280;41125;48.752;9.168;2023-05-18T00:08:43;97489.25;;;6.19;84.33
55263;BME280;41125;48.752;9.168;2023-05-18T00:09:14;97483.88;;;6.19;83.36
55263;BME280;41125;48.752;9.168;2023-05-18T00:09:45;97490.31;;;6.18;83.77
55263;BME280;41125;48.752;9.168;2023-05-18T00:10:22;97487.06;;;6.16;83.84
55263;BME280;41125;48.752;9.168;2023-05-18T00:10:54;97486.00;;;6.17;84.00
55263;BME280;41125;48.752;9.168;2023-05-18T00:11:26;97482.25;;;6.18;83.88
55263;BME280;41125;48.752;9.168;2023-05-18T00:11:58;97489.25;;;6.19;84.33
55263;BME280;41125;48.752;9.168;2023-05-18T00:12:29;97482.25;;;6.18;84.66
55263;BME280;41125;48.752;9.168;2023-05-18T00:13:00;97475.22;;;6.17;84.76
55263;BME280;41125;48.752;9.168;2023-05-18T00:13:35;97476.84;;;6.18;84.50
55263;BME280;41125;48.752;9.168;2023-05-18T00:14:06;97482.25;;;6.18;85.28
55263;BME280;41125;48.752;9.168;2023-05-18T00:14:41;97476.84;;;6.18;85.38
55263;BME280;41125;48.752;9.168;2023-05-18T00:15:12;97480.59;;;6.17;85.21
55263;BME280;41125;48.752;9.168;2023-05-18T00:15:43;97481.09;;;6.14;84.91
55263;BME280;41125;48.752;9.168;2023-05-18T00:16:18;97477.84;;;6.12;85.13
55263;BME280;41125;48.752;9.168;2023-05-18T00:16:49;97479.16;;;6.09;85.43
55263;BME280;41125;48.752;9.168;2023-05-18T00:17:23;97479.41;;;6.08;85.58
55263;BME280;41125;48.752;9.168;2023-05-18T00:17:55;97475.91;;;6.07;85.45
55263;BME280;41125;48.752;9.168;2023-05-18T00:18:28;97481.28;;;6.07;85.21
55263;BME280;41125;48.752;9.168;2023-05-18T00:18:59;97481.53;;;6.05;85.54
55263;BME280;41125;48.752;9.168;2023-05-18T00:19:32;97474.50;;;6.04;85.67
55263;BME280;41125;48.752;9.168;2023-05-18T00:20:05;97475.09;;;6.07;85.40
55263;BME280;41125;48.752;9.168;2023-05-18T00:20:40;97475.09;;;6.07;85.76
55263;BME280;41125;48.752;9.168;2023-05-18T00:21:12;97475.09;;;6.07;85.28
55263;BME280;41125;48.752;9.168;2023-05-18T00:21:47;97475.91;;;6.07;85.41
55263;BME280;41125;48.752;9.168;2023-05-18T00:22:18;97475.66;;;6.09;85.37
55263;BME280;41125;48.752;9.168;2023-05-18T00:22:50;97479.41;;;6.08;85.93
55263;BME280;41125;48.752;9.168;2023-05-18T00:23:21;97472.97;;;6.09;85.40
55263;BME280;41125;48.752;9.168;2023-05-18T00:23:54;97472.97;;;6.09;85.66
55263;BME280;41125;48.752;9.168;2023-05-18T00:24:25;97478.09;;;6.10;85.77
55263;BME280;41125;48.752;9.168;2023-05-18T00:24:57;97477.28;;;6.10;86.29
55263;BME280;41125;48.752;9.168;2023-05-18T00:25:28;97474.59;;;6.10;85.96
55263;BME280;41125;48.752;9.168;2023-05-18T00:26:01;97470.25;;;6.09;85.63
55263;BME280;41125;48.752;9.168;2023-05-18T00:26:32;97470.81;;;6.11;86.12
55263;BME280;41125;48.752;9.168;2023-05-18T00:27:03;97477.84;;;6.12;86.22
55263;BME280;41125;48.752;9.168;2023-05-18T00:27:35;97473.53;;;6.11;86.48
55263;BME280;41125;48.752;9.168;2023-05-18T00:28:06;97470.00;;;6.10;86.34
55263;BME280;41125;48.752;9.168;2023-05-18T00:28:38;97468.13;;;6.11;85.43
55263;BME280;41125;48.752;9.168;2023-05-18T00:29:10;97470.34;;;6.14;85.10
55263;BME280;41125;48.752;9.168;2023-05-18T00:29:42;97469.25;;;6.15;85.11
55263;BME280;41125;48.752;9.168;2023-05-18T00:30:14;97459.88;;;6.17;84.64
55263;BME280;41125;48.752;9.168;2023-05-18T00:30:45;97460.44;;;6.19;84.36
55263;BME280;41125;48.752;9.168;2023-05-18T00:31:17;97461.00;;;6.21;83.97
55263;BME280;41125;48.752;9.168;2023-05-18T00:31:49;97466.97;;;6.23;83.88
55263;BME280;41125;48.752;9.168;2023-05-18T00:32:21;97462.91;;;6.26;83.41
55263;BME280;41125;48.752;9.168;2023-05-18T00:32:52;97463.47;;;6.28;83.94
55263;BME280;41125;48.752;9.168;2023-05-18T00:33:23;97457.84;;;6.29;83.34
55263;BME280;41125;48.752;9.168;2023-05-18T00:33:54;97465.69;;;6.31;83.14
55263;BME280;41125;48.752;9.168;2023-05-18T00:34:26;97460.03;;;6.32;82.75
55263;BME280;41125;48.752;9.168;2023-05-18T00:34:57;97461.41;;;6.35;82.87
55263;BME280;41125;48.752;9.168;2023-05-18T00:35:29;97463.84;;;6.36;82.69
55263;BME280;41125;48.752;9.168;2023-05-18T00:36:01;97459.28;;;6.37;82.61
55263;BME280;41125;48.752;9.168;2023-05-18T00:36:32;97456.59;;;6.37;82.67
55263;BME280;41125;48.752;9.168;2023-05-18T00:38:13;97463.03;;;6.36;82.22
55263;BME280;41125;48.752;9.168;2023-05-18T00:38:47;97463.84;;;6.36;82.10
55263;BME280;41125;48.752;9.168;2023-05-18T00:39:19;97460.09;;;6.37;82.40
55263;BME280;41125;48.752;9.168;2023-05-18T00:39:50;97460.91;;;6.38;82.11
55263;BME280;41125;48.752;9.168;2023-05-18T00:40:22;97463.59;;;6.38;82.68
55263;BME280;41125;48.752;9.168;2023-05-18T00:40:55;97464.69;;;6.37;82.40
55263;BME280;41125;48.752;9.168;2023-05-18T00:41:28;97457.66;;;6.36;82.49
55263;BME280;41125;48.752;9.168;2023-05-18T00:42:00;97461.97;;;6.37;82.61
55263;BME280;41125;48.752;9.168;2023-05-18T00:42:32;97464.69;;;6.37;82.65
55263;BME280;41125;48.752;9.168;2023-05-18T00:43:03;97461.72;;;6.38;82.50
55263;BME280;41125;48.752;9.168;2023-05-18T00:43:34;97458.78;;;6.40;82.69
55263;BME280;41125;48.752;9.168;2023-05-18T00:44:06;97465.81;;;6.41;82.88
55263;BME280;41125;48.752;9.168;2023-05-18T00:44:37;97462.03;;;6.42;82.91
55263;BME280;41125;48.752;9.168;2023-05-18T00:45:09;97462.53;;;6.39;82.97
55263;BME280;41125;48.752;9.168;2023-05-18T00:45:41;97465.75;;;6.36;83.15
55263;BME280;41125;48.752;9.168;2023-05-18T00:46:12;97464.34;;;6.33;83.12
55263;BME280;41125;48.752;9.168;2023-05-18T00:46:43;97462.47;;;6.34;83.41
55263;BME280;41125;48.752;9.168;2023-05-18T00:47:14;97461.91;;;6.32;83.52
55263;BME280;41125;48.752;9.168;2023-05-18T00:47:45;97467.56;;;6.30;83.20
55263;BME280;41125;48.752;9.168;2023-05-18T00:48:18;97457.59;;;6.31;83.36
55263;BME280;41125;48.752;9.168;2023-05-18T00:48:50;97466.50;;;6.31;83.73
55263;BME280;41125;48.752;9.168;2023-05-18T00:49:22;97464.28;;;6.28;83.72
55263;BME280;41125;48.752;9.168;2023-05-18T00:49:53;97468.31;;;6.26;84.03
55263;BME280;41125;48.752;9.168;2023-05-18T00:50:24;97470.16;;;6.20;84.34
55263;BME280;41125;48.752;9.168;2023-05-18T00:50:56;97470.91;;;6.16;84.67
55263;BME280;41125;48.752;9.168;2023-05-18T00:51:28;97473.03;;;6.14;84.32
55263;BME280;41125;48.752;9.168;2023-05-18T00:52:00;97472.47;;;6.12;84.47
55263;BME280;41125;48.752;9.168;2023-05-18T00:52:33;97471.31;;;6.08;84.84
55263;BME280;41125;48.752;9.168;2023-05-18T00:53:06;97469.13;;;6.04;84.85
55263;BME280;41125;48.752;9.168;2023-05-18T00:53:38;97468.00;;;6.00;84.67
55263;BME280;41125;48.752;9.168;2023-05-18T00:54:09;97471.19;;;5.97;85.00
55263;BME280;41125;48.752;9.168;2023-05-18T00:54:41;97467.91;;;5.95;85.41
55263;BME280;41125;48.752;9.168;2023-05-18T00:55:13;97466.28;;;5.94;85.72
55263;BME280;41125;48.752;9.168;2023-05-18T00:55:44;97464.66;;;5.93;85.48
55263;BME280;41125;48.752;9.168;2023-05-18T00:56:16;97466.78;;;5.91;85.49
55263;BME280;41125;48.752;9.168;2023-05-18T00:56:47;97474.06;;;5.91;85.47
55263;BME280;41125;48.752;9.168;2023-05-18T00:57:19;97465.16;;;5.90;85.52
55263;BME280;41125;48.752;9.168;2023-05-18T00:57:54;97465.66;;;5.87;85.36
55263;BME280;41125;48.752;9.168;2023-05-18T00:58:29;97468.59;;;5.86;85.81
55263;BME280;41125;48.752;9.168;2023-05-18T00:59:01;97471.53;;;5.84;85.65
55263;BME280;41125;48.752;9.168;2023-05-18T00:59:33;97469.41;;;5.86;85.79
55263;BME280;41125;48.752;9.168;2023-05-18T01:00:06;97463.19;;;5.86;86.41
55263;BME280;41125;48.752;9.168;2023-05-18T01:00:40;97462.37;;;5.85;86.58
55263;BME280;41125;48.752;9.168;2023-05-18T01:01:12;97459.12;;;5.83;85.86
55263;BME280;41125;48.752;9.168;2023-05-18T01:01:43;97466.62;;;5.81;86.04
55263;BME280;41125;48.752;9.168;2023-05-18T01:02:16;97466.38;;;5.83;85.94
55263;BME280;41125;48.752;9.168;2023-05-18T01:02:47;97460.75;;;5.84;85.72
55263;BME280;41125;48.752;9.168;2023-05-18T01:03:20;97459.44;;;5.87;85.26
55263;BME280;41125;48.752;9.168;2023-05-18T01:03:52;97457.56;;;5.87;85.50
55263;BME280;41125;48.752;9.168;2023-05-18T01:04:26;97461.06;;;5.88;84.96
55263;BME280;41125;48.752;9.168;2023-05-18T01:04:58;97466.22;;;5.89;85.13
55263;BME280;41125;48.752;9.168;2023-05-18T01:05:30;97459.78;;;5.90;84.92
55263;BME280;41125;48.752;9.168;2023-05-18T01:06:01;97459.78;;;5.90;84.92
55263;BME280;41125;48.752;9.168;2023-05-18T01:06:35;97456.00;;;5.91;84.90
55263;BME280;41125;48.752;9.168;2023-05-18T01:07:07;97456.81;;;5.92;85.39
55263;BME280;41125;48.752;9.168;2023-05-18T01:07:39;97463.28;;;5.91;85.99
55263;BME280;41125;48.752;9.168;2023-05-18T01:08:13;97454.38;;;5.90;86.04
55263;BME280;41125;48.752;9.168;2023-05-18T01:08:45;97459.78;;;5.90;85.79
55263;BME280;41125;48.752;9.168;2023-05-18T01:09:18;97464.34;;;5.90;85.98
55263;BME280;41125;48.752;9.168;2023-05-18T01:09:50;97456.50;;;5.88;86.18
55263;BME280;41125;48.752;9.168;2023-05-18T01:10:21;97455.94;;;5.86;86.38
55263;BME280;41125;48.752;9.168;2023-05-18T01:11:13;97454.22;;;5.80;86.37
55263;BME280;41125;48.752;9.168;2023-05-18T01:12:18;97457.34;;;5.72;86.80
55263;BME280;41125;48.752;9.168;2023-05-18T01:13:12;97462.16;;;5.70;87.36
55263;BME280;41125;48.752;9.168;2023-05-18T01:14:12;97457.19;;;5.62;87.04
55263;BME280;41125;48.752;9.168;2023-05-18T01:14:53;97457.69;;;5.59;87.33
55263;BME280;41125;48.752;9.168;2023-05-18T01:15:34;97457.63;;;5.54;87.83
55263;BME280;41125;48.752;9.168;2023-05-18T01:16:09;97460.81;;;5.51;87.57
55263;BME280;41125;48.752;9.168;2023-05-18T01:18:26;97462.94;;;5.49;88.15
55263;BME280;41125;48.752;9.168;2023-05-18T01:19:09;97466.59;;;5.43;88.80
55263;BME280;41125;48.752;9.168;2023-05-18T01:20:11;97462.03;;;5.43;88.86
55263;BME280;41125;48.752;9.168;2023-05-18T01:20:55;97464.25;;;5.46;88.36
55263;BME280;41125;48.752;9.168;2023-05-18T01:22:49;97466.69;;;5.48;88.29
55263;BME280;41125;48.752;9.168;2023-05-18T01:24:49;97469.38;;;5.48;87.75
55263;BME280;41125;48.752;9.168;2023-05-18T01:26:43;97471.50;;;5.46;88.21
55263;BME280;41125;48.752;9.168;2023-05-18T01:27:17;97474.19;;;5.46;88.46
55263;BME280;41125;48.752;9.168;2023-05-18T01:27:53;97466.94;;;5.46;88.47
55263;BME280;41125;48.752;9.168;2023-05-18T01:28:31;97475.81;;;5.47;88.83
55263;BME280;41125;48.752;9.168;2023-05-18T01:29:06;97474.19;;;5.46;88.91
55263;BME280;41125;48.752;9.168;2023-05-18T01:29:40;97483.09;;;5.46;89.75
55263;BME280;41125;48.752;9.168;2023-05-18T01:30:14;97476.88;;;5.46;89.68
55263;BME280;41125;48.752;9.168;2023-05-18T01:30:47;97473.38;;;5.45;89.70
55263;BME280;41125;48.752;9.168;2023-05-18T01:31:20;97470.94;;;5.44;90.09
55263;BME280;41125;48.752;9.168;2023-05-18T01:31:51;97474.69;;;5.43;90.09
55263;BME280;41125;48.752;9.168;2023-05-18T01:32:23;97474.69;;;5.43;90.18
55263;BME280;41125;48.752;9.168;2023-05-18T01:32:56;97464.50;;;5.45;90.26
55263;BME280;41125;48.752;9.168;2023-05-18T01:33:27;97468.25;;;5.44;90.54
55263;BME280;41125;48.752;9.168;2023-05-18T01:33:58;97471.75;;;5.44;90.73
55263;BME280;41125;48.752;9.168;2023-05-18T01:34:29;97469.53;;;5.41;90.80
55263;BME280;41125;48.752;9.168;2023-05-18T01:35:04;97459.84;;;5.40;91.28
55263;BME280;41125;48.752;9.168;2023-05-18T01:35:36;97471.41;;;5.41;91.23
55263;BME280;41125;48.752;9.168;2023-05-18T01:36:08;97462.28;;;5.42;90.87
55263;BME280;41125;48.752;9.168;2023-05-18T01:36:40;97461.47;;;5.41;90.99
55263;BME280;41125;48.752;9.168;2023-05-18T01:37:12;97462.28;;;5.42;90.93
55263;BME280;41125;48.752;9.168;2023-05-18T01:37:43;97465.53;;;5.44;90.48
55263;BME280;41125;48.752;9.168;2023-05-18T01:38:17;97463.44;;;5.46;89.61
55263;BME280;41125;48.752;9.168;2023-05-18T01:38:49;97467.19;;;5.45;90.14
55263;BME280;41125;48.752;9.168;2023-05-18T01:39:21;97460.66;;;5.41;89.96
55263;BME280;41125;48.752;9.168;2023-05-18T01:39:52;97460.09;;;5.38;90.36
55263;BME280;41125;48.752;9.168;2023-05-18T01:40:24;97467.34;;;5.38;90.14
55263;BME280;41125;48.752;9.168;2023-05-18T01:41:33;97462.69;;;5.33;91.02
55263;BME280;41125;48.752;9.168;2023-05-18T01:42:11;97459.19;;;5.33;90.98
55263;BME280;41125;48.752;9.168;2023-05-18T01:42:50;97453.56;;;5.34;90.78
55263;BME280;41125;48.752;9.168;2023-05-18T01:43:34;97460.00;;;5.33;90.53
55263;BME280;41125;48.752;9.168;2023-05-18T01:45:21;97458.69;;;5.36;90.08
55263;BME280;41125;48.752;9.168;2023-05-18T01:45:57;97455.75;;;5.37;89.88
55263;BME280;41125;48.752;9.168;2023-05-18T01:47:07;97453.63;;;5.39;89.41
55263;BME280;41125;48.752;9.168;2023-05-18T01:47:44;97449.88;;;5.41;89.87
55263;BME280;41125;48.752;9.168;2023-05-18T01:48:19;97462.78;;;5.38;90.18
55263;BME280;41125;48.752;9.168;2023-05-18T01:48:57;97453.63;;;5.39;90.18
55263;BME280;41125;48.752;9.168;2023-05-18T01:49:59;97456.56;;;5.38;89.62
55263;BME280;41125;48.752;9.168;2023-05-18T01:50:35;97460.09;;;5.38;89.62
55263;BME280;41125;48.752;9.168;2023-05-18T01:51:13;97457.38;;;5.38;90.27
55263;BME280;41125;48.752;9.168;2023-05-18T01:51:51;97454.94;;;5.37;90.24
55263;BME280;41125;48.752;9.168;2023-05-18T01:52:42;97455.75;;;5.37;89.67
55263;BME280;41125;48.752;9.168;2023-05-18T01:53:28;97454.13;;;5.36;89.92
55263;BME280;41125;48.752;9.168;2023-05-18T01:54:07;97454.94;;;5.37;89.98
55263;BME280;41125;48.752;9.168;2023-05-18T01:54:42;97463.25;;;5.35;90.56
55263;BME280;41125;48.752;9.168;2023-05-18T01:55:16;97457.56;;;5.32;90.48
55263;BME280;41125;48.752;9.168;2023-05-18T01:55:49;97458.84;;;5.29;90.54
55263;BME280;41125;48.752;9.168;2023-05-18T01:56:23;97461.53;;;5.29;90.51
55263;BME280;41125;48.752;9.168;2023-05-18T01:56:54;97463.66;;;5.27;90.37
55263;BME280;41125;48.752;9.168;2023-05-18T01:57:30;97458.28;;;5.27;90.79
55263;BME280;41125;48.752;9.168;2023-05-18T01:58:04;97456.66;;;5.26;90.81
55263;BME280;41125;48.752;9.168;2023-05-18T01:58:37;97457.72;;;5.25;90.80
55263;BME280;41125;48.752;9.168;2023-05-18T01:59:09;97454.44;;;5.23;90.86
55263;BME280;41125;48.752;9.168;2023-05-18T01:59:41;97454.44;;;5.23;91.64
55263;BME280;41125;48.752;9.168;2023-05-18T02:00:15;97456.31;;;5.23;91.67
55263;BME280;41125;48.752;9.168;2023-05-18T02:00:47;97456.31;;;5.23;91.24
55263;BME280;41125;48.752;9.168;2023-05-18T02:01:19;97453.63;;;5.23;91.15
55263;BME280;41125;48.752;9.168;2023-05-18T02:01:52;97450.13;;;5.22;91.16
55263;BME280;41125;48.752;9.168;2023-05-18T02:02:27;97451.75;;;5.23;90.95
55263;BME280;41125;48.752;9.168;2023-05-18T02:02:59;97457.13;;;5.23;91.24
55263;BME280;41125;48.752;9.168;2023-05-18T02:03:31;97452.81;;;5.22;91.07
55263;BME280;41125;48.752;9.168;2023-05-18T02:04:07;97457.72;;;5.25;90.63
55263;BME280;41125;48.752;9.168;2023-05-18T02:04:39;97446.47;;;5.28;90.71
55263;BME280;41125;48.752;9.168;2023-05-18T02:05:10;97460.97;;;5.27;90.22
55263;BME280;41125;48.752;9.168;2023-05-18T02:05:44;97455.25;;;5.24;90.65
55263;BME280;41125;48.752;9.168;2023-05-18T02:06:16;97457.09;;;5.18;90.95
55263;BME280;41125;48.752;9.168;2023-05-18T02:06:47;97457.00;;;5.13;91.91
55263;BME280;41125;48.752;9.168;2023-05-18T02:07:19;97456.44;;;5.11;91.80
55263;BME280;41125;48.752;9.168;2023-05-18T02:07:50;97455.84;;;5.09;92.49
55263;BME280;41125;48.752;9.168;2023-05-18T02:08:21;97451.53;;;5.08;92.32
55263;BME280;41125;48.752;9.168;2023-05-18T02:08:53;97455.28;;;5.07;92.64
55263;BME280;41125;48.752;9.168;2023-05-18T02:09:25;97452.00;;;5.05;92.64
55263;BME280;41125;48.752;9.168;2023-05-18T02:09:59;97457.41;;;5.05;93.09
55263;BME280;41125;48.752;9.168;2023-05-18T02:10:30;97455.75;;;5.04;93.14
55263;BME280;41125;48.752;9.168;2023-05-18T02:11:01;97449.81;;;5.02;93.06
55263;BME280;41125;48.752;9.168;2023-05-18T02:11:33;97451.44;;;5.03;93.06
55263;BME280;41125;48.752;9.168;2023-05-18T02:12:05;97451.44;;;5.03;93.14
55263;BME280;41125;48.752;9.168;2023-05-18T02:12:37;97447.13;;;5.02;92.77
55263;BME280;41125;48.752;9.168;2023-05-18T02:13:08;97454.13;;;5.03;92.70
55263;BME280;41125;48.752;9.168;2023-05-18T02:13:39;97449.56;;;5.03;92.56
55263;BME280;41125;48.752;9.168;2023-05-18T02:14:13;97451.44;;;5.03;92.68
55263;BME280;41125;48.752;9.168;2023-05-18T02:14:44;97451.44;;;5.03;92.88
55263;BME280;41125;48.752;9.168;2023-05-18T02:15:16;97457.31;;;5.00;92.99
55263;BME280;41125;48.752;9.168;2023-05-18T02:15:47;97451.94;;;5.00;92.41
55263;BME280;41125;48.752;9.168;2023-05-18T02:16:18;97450.88;;;5.01;92.60
55263;BME280;41125;48.752;9.168;2023-05-18T02:16:51;97454.63;;;5.00;92.54
55263;BME280;41125;48.752;9.168;2023-05-18T02:17:24;97449.81;;;5.02;92.61
55263;BME280;41125;48.752;9.168;2023-05-18T02:17:56;97450.38;;;5.04;91.98
55263;BME280;41125;48.752;9.168;2023-05-18T02:18:28;97450.38;;;5.04;91.94
55263;BME280;41125;48.752;9.168;2023-05-18T02:18:59;97453.06;;;5.04;92.41
55263;BME280;41125;48.752;9.168;2023-05-18T02:19:30;97454.13;;;5.03;92.53
55263;BME280;41125;48.752;9.168;2023-05-18T02:20:01;97453.56;;;5.01;92.35
55263;BME280;41125;48.752;9.168;2023-05-18T02:20:36;97450.88;;;5.01;92.89
55263;BME280;41125;48.752;9.168;2023-05-18T02:21:08;97449.25;;;5.00;92.61
55263;BME280;41125;48.752;9.168;2023-05-18T02:21:39;97449.25;;;5.00;92.70
55263;BME280;41125;48.752;9.168;2023-05-18T02:22:13;97451.94;;;5.00;92.65
55263;BME280;41125;48.752;9.168;2023-05-18T02:22:44;97444.69;;;5.00;92.51
55263;BME280;41125;48.752;9.168;2023-05-18T02:23:16;97449.25;;;5.00;92.68
55263;BME280;41125;48.752;9.168;2023-05-18T02:23:47;97447.59;;;4.99;92.72
55263;BME280;41125;48.752;9.168;2023-05-18T02:24:19;97448.66;;;4.98;92.78
55263;BME280;41125;48.752;9.168;2023-05-18T02:27:48;97437.66;;;4.99;93.44
55263;BME280;41125;48.752;9.168;2023-05-18T02:30:34;97443.03;;;4.99;93.24
55263;BME280;41125;48.752;9.168;2023-05-18T02:31:39;97442.47;;;4.97;93.83
55263;BME280;41125;48.752;9.168;2023-05-18T02:32:22;97434.66;;;4.96;94.20
55263;BME280;41125;48.752;9.168;2023-05-18T02:32:55;97431.53;;;4.87;94.26
55263;BME280;41125;48.752;9.168;2023-05-18T02:33:27;97434.88;;;4.94;94.37
55263;BME280;41125;48.752;9.168;2023-05-18T02:34:29;97435.94;;;4.93;94.27
55263;BME280;41125;48.752;9.168;2023-05-18T02:35:10;97435.38;;;4.91;94.06
55263;BME280;41125;48.752;9.168;2023-05-18T02:36:19;97429.66;;;4.88;94.10
55263;BME280;41125;48.752;9.168;2023-05-18T02:36:52;97449.06;;;4.90;94.04
55263;BME280;41125;48.752;9.168;2023-05-18T02:37:32;97431.03;;;4.90;94.25
55263;BME280;41125;48.752;9.168;2023-05-18T02:38:13;97432.44;;;4.93;93.67
55263;BME280;41125;48.752;9.168;2023-05-18T02:38:45;97436.66;;;4.89;93.71
55263;BME280;41125;48.752;9.168;2023-05-18T02:39:32;97437.00;;;4.92;93.70
55263;BME280;41125;48.752;9.168;2023-05-18T02:40:08;97431.63;;;4.92;93.30
55263;BME280;41125;48.752;9.168;2023-05-18T02:40:43;97437.34;;;4.96;92.93
55263;BME280;41125;48.752;9.168;2023-05-18T02:41:17;97422.97;;;4.90;93.04
55263;BME280;41125;48.752;9.168;2023-05-18T02:41:53;97435.22;;;4.98;93.00
55263;BME280;41125;48.752;9.168;2023-05-18T02:42:26;97429.03;;;4.97;93.04
55263;BME280;41125;48.752;9.168;2023-05-18T02:43:01;97429.50;;;4.94;92.10
55263;BME280;41125;48.752;9.168;2023-05-18T02:43:51;97430.00;;;4.91;92.36
55263;BME280;41125;48.752;9.168;2023-05-18T02:44:26;97433.16;;;4.88;92.46
55263;BME280;41125;48.752;9.168;2023-05-18T02:44:58;97422.09;;;4.85;92.10
55263;BME280;41125;48.752;9.168;2023-05-18T02:45:44;97425.84;;;4.84;91.73
55263;BME280;41125;48.752;9.168;2023-05-18T02:46:16;97428.53;;;4.84;91.82
55263;BME280;41125;48.752;9.168;2023-05-18T02:46:49;97423.97;;;4.84;91.72
55263;BME280;41125;48.752;9.168;2023-05-18T02:47:20;97427.41;;;4.80;91.43
55263;BME280;41125;48.752;9.168;2023-05-18T02:47:52;97439.28;;;4.84;91.59
55263;BME280;41125;48.752;9.168;2023-05-18T02:48:28;97440.25;;;4.78;91.53
55263;BME280;41125;48.752;9.168;2023-05-18T02:49:00;97428.12;;;4.75;91.62
55263;BME280;41125;48.752;9.168;2023-05-18T02:49:32;97434.56;;;4.74;92.07
55263;BME280;41125;48.752;9.168;2023-05-18T02:50:08;97425.09;;;4.71;92.54
55263;BME280;41125;48.752;9.168;2023-05-18T02:50:42;97428.84;;;4.70;92.37
55263;BME280;41125;48.752;9.168;2023-05-18T02:51:28;97428.84;;;4.70;92.64
55263;BME280;41125;48.752;9.168;2023-05-18T02:52:24;97428.84;;;4.70;92.97
55263;BME280;41125;48.752;9.168;2023-05-18T02:52:59;97434.22;;;4.70;92.68
55263;BME280;41125;48.752;9.168;2023-05-18T02:53:32;97427.44;;;4.68;93.13
55263;BME280;41125;48.752;9.168;2023-05-18T02:54:08;97428.34;;;4.74;93.41
55263;BME280;41125;48.752;9.168;2023-05-18T02:54:41;97444.97;;;4.70;93.21
55263;BME280;41125;48.752;9.168;2023-05-18T02:55:27;97435.84;;;4.71;93.40
55263;BME280;41125;48.752;9.168;2023-05-18T02:56:17;97433.06;;;4.66;93.76
55263;BME280;41125;48.752;9.168;2023-05-18T02:56:50;97430.56;;;4.77;94.03
55263;BME280;41125;48.752;9.168;2023-05-18T02:57:27;97425.44;;;4.75;93.70
55263;BME280;41125;48.752;9.168;2023-05-18T02:58:08;97428.94;;;4.76;93.46
55263;BME280;41125;48.752;9.168;2023-05-18T02:58:42;97435.38;;;4.75;93.62
55263;BME280;41125;48.752;9.168;2023-05-18T02:59:22;97422.97;;;4.74;93.81
55263;BME280;41125;48.752;9.168;2023-05-18T02:59:54;97436.19;;;4.75;93.41
55263;BME280;41125;48.752;9.168;2023-05-18T03:00:30;97435.38;;;4.75;93.11
55263;BME280;41125;48.752;9.168;2023-05-18T03:01:03;97435.84;;;4.71;93.10
55263;BME280;41125;48.752;9.168;2023-05-18T03:01:42;97432.09;;;4.72;93.12
55263;BME280;41125;48.752;9.168;2023-05-18T03:02:19;97436.66;;;4.72;93.56
55263;BME280;41125;48.752;9.168;2023-05-18T03:02:54;97435.84;;;4.71;93.38
55263;BME280;41125;48.752;9.168;2023-05-18T03:03:32;97434.69;;;4.67;92.86
55263;BME280;41125;48.752;9.168;2023-05-18T03:04:11;97431.09;;;4.62;93.25
55263;BME280;41125;48.752;9.168;2023-05-18T03:05:05;97430.94;;;4.68;93.40
55263;BME280;41125;48.752;9.168;2023-05-18T03:05:38;97437.16;;;4.69;93.29
55263;BME280;41125;48.752;9.168;2023-05-18T03:06:10;97432.50;;;4.64;93.25
55263;BME280;41125;48.752;9.168;2023-05-18T03:06:46;97433.78;;;4.62;93.18
55263;BME280;41125;48.752;9.168;2023-05-18T03:07:22;97441.50;;;4.58;93.65
55263;BME280;41125;48.752;9.168;2023-05-18T03:08:10;97432.78;;;4.51;94.03
55263;BME280;41125;48.752;9.168;2023-05-18T03:08:55;97438.72;;;4.53;94.38
55263;BME280;41125;48.752;9.168;2023-05-18T03:09:52;97431.81;;;4.57;94.65
55263;BME280;41125;48.752;9.168;2023-05-18T03:10:28;97428.31;;;4.57;94.58
55263;BME280;41125;48.752;9.168;2023-05-18T03:11:17;97438.91;;;4.63;94.75
55263;BME280;41125;48.752;9.168;2023-05-18T03:11:57;97436.81;;;4.65;94.72
55263;BME280;41125;48.752;9.168;2023-05-18T03:12:32;97434.03;;;4.60;94.55
55263;BME280;41125;48.752;9.168;2023-05-18T03:13:30;97435.19;;;4.64;94.64
55263;BME280;41125;48.752;9.168;2023-05-18T03:14:05;97433.53;;;4.63;94.68
55263;BME280;41125;48.752;9.168;2023-05-18T03:14:42;97436.47;;;4.62;94.46
55263;BME280;41125;48.752;9.168;2023-05-18T03:15:23;97431.56;;;4.59;94.28
55263;BME280;41125;48.752;9.168;2023-05-18T03:16:17;97428.31;;;4.57;94.63
55263;BME280;41125;48.752;9.168;2023-05-18T03:16:58;97427.34;;;4.46;94.92
55263;BME280;41125;48.752;9.168;2023-05-18T03:17:52;97432.72;;;4.46;95.28
55263;BME280;41125;48.752;9.168;2023-05-18T03:19:01;97427.34;;;4.46;95.43
55263;BME280;41125;48.752;9.168;2023-05-18T03:19:56;97423.59;;;4.47;94.92
55263;BME280;41125;48.752;9.168;2023-05-18T03:20:33;97427.41;;;4.51;95.13
55263;BME280;41125;48.752;9.168;2023-05-18T03:21:38;97429.78;;;4.48;94.98
55263;BME280;41125;48.752;9.168;2023-05-18T03:22:25;97425.53;;;4.52;95.14
55263;BME280;41125;48.752;9.168;2023-05-18T03:23:03;97429.03;;;4.52;94.92
55263;BME280;41125;48.752;9.168;2023-05-18T03:23:43;97428.31;;;4.57;94.92